sensor_id;sensor_type;location;lat;lon;timestamp;P1;durP1;ratioP1;P2;durP2;ratioP2
82030;SDS011;71592;52.178;4.512;2023-08-06T00:00:38;8.27;;;5.93;;
82030;SDS011;71592;52.178;4.512;2023-08-06T00:03:04;9.43;;;6.20;;
82030;SDS011;71592;52.178;4.512;2023-08-06T00:05:29;7.57;;;5.95;;
82030;SDS011;71592;52.178;4.512;2023-08-06T00:07:55;7.95;;;6.15;;
82030;SDS011;71592;52.178;4.512;2023-08-06T00:10:20;9.70;;;5.95;;
82030;SDS011;71592;52.178;4.512;2023-08-06T00:12:47;8.55;;;6.20;;
82030;SDS011;71592;52.178;4.512;2023-08-06T00:15:13;7.55;;;5.85;;
82030;SDS011;71592;52.178;4.512;2023-08-06T00:17:39;8.68;;;6.07;;
82030;SDS011;71592;52.178;4.512;2023-08-06T00:20:05;7.93;;;6.20;;
82030;SDS011;71592;52.178;4.512;2023-08-06T00:22:34;8.35;;;6.53;;
82030;SDS011;71592;52.178;4.512;2023-08-06T00:25:01;7.97;;;5.68;;
82030;SDS011;71592;52.178;4.512;2023-08-06T00:27:28;8.60;;;5.80;;
82030;SDS011;71592;52.178;4.512;2023-08-06T00:29:54;6.95;;;5.50;;
82030;SDS011;71592;52.178;4.512;2023-08-06T00:32:19;8.50;;;6.00;;
82030;SDS011;71592;52.178;4.512;2023-08-06T00:34:45;6.90;;;5.38;;
82030;SDS011;71592;52.178;4.512;2023-08-06T00:37:10;6.95;;;5.40;;
82030;SDS011;71592;52.178;4.512;2023-08-06T00:39:35;7.95;;;5.75;;
82030;SDS011;71592;52.178;4.512;2023-08-06T00:42:01;7.45;;;4.63;;
82030;SDS011;71592;52.178;4.512;2023-08-06T00:44:26;7.55;;;5.18;;
82030;SDS011;71592;52.178;4.512;2023-08-06T00:46:52;7.10;;;5.22;;
82030;SDS011;71592;52.178;4.512;2023-08-06T00:49:17;8.20;;;6.70;;
82030;SDS011;71592;52.178;4.512;2023-08-06T00:51:43;7.68;;;5.78;;
82030;SDS011;71592;52.178;4.512;2023-08-06T00:54:09;7.47;;;5.03;;
82030;SDS011;71592;52.178;4.512;2023-08-06T00:56:35;7.72;;;5.47;;
82030;SDS011;71592;52.178;4.512;2023-08-06T00:59:01;6.30;;;4.65;;
82030;SDS011;71592;52.178;4.512;2023-08-06T01:01:28;7.25;;;4.88;;
82030;SDS011;71592;52.178;4.512;2023-08-06T01:03:54;6.07;;;4.57;;
82030;SDS011;71592;52.178;4.512;2023-08-06T01:06:20;7.32;;;5.18;;
82030;SDS011;71592;52.178;4.512;2023-08-06T01:09:01;7.32;;;4.47;;
82030;SDS011;71592;52.178;4.512;2023-08-06T01:12:25;6.60;;;4.18;;
82030;SDS011;71592;52.178;4.512;2023-08-06T01:14:45;6.20;;;4.22;;
82030;SDS011;71592;52.178;4.512;2023-08-06T01:17:17;6.75;;;4.55;;
82030;SDS011;71592;52.178;4.512;2023-08-06T01:19:43;6.82;;;5.05;;
82030;SDS011;71592;52.178;4.512;2023-08-06T01:22:09;7.32;;;4.80;;
82030;SDS011;71592;52.178;4.512;2023-08-06T01:24:34;5.55;;;3.85;;
82030;SDS011;71592;52.178;4.512;2023-08-06T01:29:32;4.88;;;3.60;;
82030;SDS011;71592;52.178;4.512;2023-08-06T01:32:04;6.00;;;3.83;;
82030;SDS011;71592;52.178;4.512;2023-08-06T01:34:31;5.05;;;3.53;;
82030;SDS011;71592;52.178;4.512;2023-08-06T01:36:59;5.22;;;4.15;;
82030;SDS011;71592;52.178;4.512;2023-08-06T01:39:25;5.80;;;3.90;;
82030;SDS011;71592;52.178;4.512;2023-08-06T01:41:51;5.72;;;3.75;;
82030;SDS011;71592;52.178;4.512;2023-08-06T01:44:16;6.18;;;4.13;;
82030;SDS011;71592;52.178;4.512;2023-08-06T01:46:42;6.38;;;4.20;;
82030;SDS011;71592;52.178;4.512;2023-08-06T01:49:08;5.57;;;4.10;;
82030;SDS011;71592;52.178;4.512;2023-08-06T01:51:33;4.93;;;3.42;;
82030;SDS011;71592;52.178;4.512;2023-08-06T01:53:59;5.22;;;3.58;;
82030;SDS011;71592;52.178;4.512;2023-08-06T01:56:25;5.45;;;3.47;;
82030;SDS011;71592;52.178;4.512;2023-08-06T01:58:50;6.10;;;4.10;;
82030;SDS011;71592;52.178;4.512;2023-08-06T02:01:15;6.63;;;3.78;;
82030;SDS011;71592;52.178;4.512;2023-08-06T02:03:41;4.93;;;3.55;;
82030;SDS011;71592;52.178;4.512;2023-08-06T02:06:07;6.15;;;3.70;;
82030;SDS011;71592;52.178;4.512;2023-08-06T02:08:32;6.30;;;3.88;;
82030;SDS011;71592;52.178;4.512;2023-08-06T02:10:58;5.60;;;4.45;;
82030;SDS011;71592;52.178;4.512;2023-08-06T02:13:24;6.00;;;4.03;;
82030;SDS011;71592;52.178;4.512;2023-08-06T02:15:49;7.03;;;4.38;;
82030;SDS011;71592;52.178;4.512;2023-08-06T02:18:15;6.30;;;4.07;;
82030;SDS011;71592;52.178;4.512;2023-08-06T02:20:41;6.05;;;4.68;;
82030;SDS011;71592;52.178;4.512;2023-08-06T02:23:07;6.13;;;4.32;;
82030;SDS011;71592;52.178;4.512;2023-08-06T02:25:33;6.57;;;4.20;;
82030;SDS011;71592;52.178;4.512;2023-08-06T02:27:59;5.32;;;4.00;;
82030;SDS011;71592;52.178;4.512;2023-08-06T02:30:24;6.20;;;4.00;;
82030;SDS011;71592;52.178;4.512;2023-08-06T02:32:50;7.70;;;5.03;;
82030;SDS011;71592;52.178;4.512;2023-08-06T02:35:15;7.00;;;4.50;;
82030;SDS011;71592;52.178;4.512;2023-08-06T02:37:41;5.93;;;4.18;;
82030;SDS011;71592;52.178;4.512;2023-08-06T02:40:06;5.68;;;3.95;;
82030;SDS011;71592;52.178;4.512;2023-08-06T02:42:32;5.57;;;4.45;;
82030;SDS011;71592;52.178;4.512;2023-08-06T02:44:58;5.03;;;3.65;;
82030;SDS011;71592;52.178;4.512;2023-08-06T02:47:23;5.07;;;3.78;;
82030;SDS011;71592;52.178;4.512;2023-08-06T02:49:49;4.97;;;3.72;;
82030;SDS011;71592;52.178;4.512;2023-08-06T02:52:14;5.35;;;4.38;;
82030;SDS011;71592;52.178;4.512;2023-08-06T02:54:40;6.10;;;4.40;;
82030;SDS011;71592;52.178;4.512;2023-08-06T02:57:05;5.93;;;4.43;;
82030;SDS011;71592;52.178;4.512;2023-08-06T02:59:31;6.82;;;4.40;;
82030;SDS011;71592;52.178;4.512;2023-08-06T03:01:58;5.38;;;3.88;;
82030;SDS011;71592;52.178;4.512;2023-08-06T03:04:23;6.90;;;4.70;;
82030;SDS011;71592;52.178;4.512;2023-08-06T03:06:49;6.30;;;4.78;;
82030;SDS011;71592;52.178;4.512;2023-08-06T03:09:15;6.22;;;4.78;;
82030;SDS011;71592;52.178;4.512;2023-08-06T03:11:41;6.45;;;4.97;;
82030;SDS011;71592;52.178;4.512;2023-08-06T03:14:06;7.05;;;5.88;;
82030;SDS011;71592;52.178;4.512;2023-08-06T03:16:32;7.05;;;6.03;;
82030;SDS011;71592;52.178;4.512;2023-08-06T03:18:58;9.23;;;6.40;;
82030;SDS011;71592;52.178;4.512;2023-08-06T03:21:24;10.98;;;7.25;;
82030;SDS011;71592;52.178;4.512;2023-08-06T03:23:50;10.65;;;7.43;;
82030;SDS011;71592;52.178;4.512;2023-08-06T03:26:15;11.55;;;8.02;;
82030;SDS011;71592;52.178;4.512;2023-08-06T03:28:40;10.13;;;7.22;;
82030;SDS011;71592;52.178;4.512;2023-08-06T03:31:06;8.95;;;6.15;;
82030;SDS011;71592;52.178;4.512;2023-08-06T03:33:32;7.55;;;5.28;;
82030;SDS011;71592;52.178;4.512;2023-08-06T03:35:57;4.80;;;3.67;;
82030;SDS011;71592;52.178;4.512;2023-08-06T03:38:23;6.78;;;3.58;;
82030;SDS011;71592;52.178;4.512;2023-08-06T03:40:48;5.07;;;2.72;;
82030;SDS011;71592;52.178;4.512;2023-08-06T03:43:14;4.05;;;2.63;;
82030;SDS011;71592;52.178;4.512;2023-08-06T03:45:40;3.80;;;2.67;;
82030;SDS011;71592;52.178;4.512;2023-08-06T03:48:06;4.93;;;2.50;;
82030;SDS011;71592;52.178;4.512;2023-08-06T03:50:32;5.38;;;3.25;;
82030;SDS011;71592;52.178;4.512;2023-08-06T03:52:57;5.43;;;2.75;;
82030;SDS011;71592;52.178;4.512;2023-08-06T03:55:23;4.28;;;2.70;;
82030;SDS011;71592;52.178;4.512;2023-08-06T03:57:48;7.53;;;3.20;;
82030;SDS011;71592;52.178;4.512;2023-08-06T04:00:14;5.03;;;2.75;;
82030;SDS011;71592;52.178;4.512;2023-08-06T04:02:39;6.32;;;3.22;;
82030;SDS011;71592;52.178;4.512;2023-08-06T04:05:05;4.55;;;3.33;;
82030;SDS011;71592;52.178;4.512;2023-08-06T04:07:30;5.35;;;3.08;;
82030;SDS011;71592;52.178;4.512;2023-08-06T04:09:59;5.13;;;3.10;;
82030;SDS011;71592;52.178;4.512;2023-08-06T04:12:27;6.03;;;2.70;;
82030;SDS011;71592;52.178;4.512;2023-08-06T04:14:53;4.45;;;2.80;;
82030;SDS011;71592;52.178;4.512;2023-08-06T04:17:19;4.38;;;3.25;;
82030;SDS011;71592;52.178;4.512;2023-08-06T04:19:49;6.60;;;3.35;;
82030;SDS011;71592;52.178;4.512;2023-08-06T04:22:16;5.97;;;2.92;;
82030;SDS011;71592;52.178;4.512;2023-08-06T04:24:42;3.42;;;2.47;;
82030;SDS011;71592;52.178;4.512;2023-08-06T04:27:08;5.28;;;2.95;;
82030;SDS011;71592;52.178;4.512;2023-08-06T04:29:34;4.00;;;2.80;;
82030;SDS011;71592;52.178;4.512;2023-08-06T04:32:00;7.75;;;2.95;;
82030;SDS011;71592;52.178;4.512;2023-08-06T04:34:25;4.03;;;2.80;;
82030;SDS011;71592;52.178;4.512;2023-08-06T04:36:50;4.80;;;3.03;;
82030;SDS011;71592;52.178;4.512;2023-08-06T04:39:16;6.43;;;3.15;;
82030;SDS011;71592;52.178;4.512;2023-08-06T04:41:41;5.72;;;3.75;;
82030;SDS011;71592;52.178;4.512;2023-08-06T04:44:06;6.40;;;3.28;;
82030;SDS011;71592;52.178;4.512;2023-08-06T04:46:32;5.60;;;3.83;;
82030;SDS011;71592;52.178;4.512;2023-08-06T04:48:57;5.32;;;3.10;;
82030;SDS011;71592;52.178;4.512;2023-08-06T04:51:23;4.45;;;3.53;;
82030;SDS011;71592;52.178;4.512;2023-08-06T04:53:48;5.00;;;3.25;;
82030;SDS011;71592;52.178;4.512;2023-08-06T04:56:14;5.65;;;3.25;;
82030;SDS011;71592;52.178;4.512;2023-08-06T04:58:39;4.22;;;2.70;;
82030;SDS011;71592;52.178;4.512;2023-08-06T05:01:04;6.68;;;3.20;;
82030;SDS011;71592;52.178;4.512;2023-08-06T05:03:30;4.55;;;2.63;;
82030;SDS011;71592;52.178;4.512;2023-08-06T05:05:55;5.07;;;3.00;;
82030;SDS011;71592;52.178;4.512;2023-08-06T05:08:21;5.70;;;3.25;;
82030;SDS011;71592;52.178;4.512;2023-08-06T05:10:46;5.13;;;2.97;;
82030;SDS011;71592;52.178;4.512;2023-08-06T05:13:11;7.78;;;3.30;;
82030;SDS011;71592;52.178;4.512;2023-08-06T05:15:37;5.10;;;2.58;;
82030;SDS011;71592;52.178;4.512;2023-08-06T05:18:03;5.68;;;2.88;;
82030;SDS011;71592;52.178;4.512;2023-08-06T05:20:29;5.70;;;2.90;;
82030;SDS011;71592;52.178;4.512;2023-08-06T05:22:54;6.35;;;3.35;;
82030;SDS011;71592;52.178;4.512;2023-08-06T05:25:19;6.00;;;2.95;;
82030;SDS011;71592;52.178;4.512;2023-08-06T05:27:45;4.93;;;2.88;;
82030;SDS011;71592;52.178;4.512;2023-08-06T05:30:10;5.07;;;2.97;;
82030;SDS011;71592;52.178;4.512;2023-08-06T05:32:36;4.07;;;2.80;;
82030;SDS011;71592;52.178;4.512;2023-08-06T05:35:01;7.35;;;3.05;;
82030;SDS011;71592;52.178;4.512;2023-08-06T05:37:27;6.05;;;2.85;;
82030;SDS011;71592;52.178;4.512;2023-08-06T05:39:53;4.93;;;3.05;;
82030;SDS011;71592;52.178;4.512;2023-08-06T05:42:18;4.57;;;2.70;;
82030;SDS011;71592;52.178;4.512;2023-08-06T05:44:44;6.20;;;2.83;;
82030;SDS011;71592;52.178;4.512;2023-08-06T05:47:09;5.95;;;2.90;;
82030;SDS011;71592;52.178;4.512;2023-08-06T05:49:35;5.82;;;3.67;;
82030;SDS011;71592;52.178;4.512;2023-08-06T05:52:00;6.43;;;3.03;;
82030;SDS011;71592;52.178;4.512;2023-08-06T05:54:27;4.95;;;2.60;;
82030;SDS011;71592;52.178;4.512;2023-08-06T05:56:53;6.63;;;2.90;;
82030;SDS011;71592;52.178;4.512;2023-08-06T05:59:18;5.45;;;2.50;;
82030;SDS011;71592;52.178;4.512;2023-08-06T06:01:43;4.88;;;2.42;;
82030;SDS011;71592;52.178;4.512;2023-08-06T06:04:09;5.18;;;2.35;;
82030;SDS011;71592;52.178;4.512;2023-08-06T06:06:34;5.55;;;2.50;;
82030;SDS011;71592;52.178;4.512;2023-08-06T06:09:00;4.50;;;1.85;;
82030;SDS011;71592;52.178;4.512;2023-08-06T06:11:25;5.25;;;2.22;;
82030;SDS011;71592;52.178;4.512;2023-08-06T06:13:51;4.05;;;1.90;;
82030;SDS011;71592;52.178;4.512;2023-08-06T06:16:17;4.18;;;2.15;;
82030;SDS011;71592;52.178;4.512;2023-08-06T06:18:42;3.78;;;1.85;;
82030;SDS011;71592;52.178;4.512;2023-08-06T06:21:09;4.88;;;1.73;;
82030;SDS011;71592;52.178;4.512;2023-08-06T06:23:35;4.25;;;1.90;;
82030;SDS011;71592;52.178;4.512;2023-08-06T06:26:00;3.67;;;1.88;;
82030;SDS011;71592;52.178;4.512;2023-08-06T06:28:29;4.03;;;1.92;;
82030;SDS011;71592;52.178;4.512;2023-08-06T06:30:54;3.65;;;1.63;;
82030;SDS011;71592;52.178;4.512;2023-08-06T06:33:25;4.75;;;1.70;;
82030;SDS011;71592;52.178;4.512;2023-08-06T06:35:50;3.03;;;1.50;;
82030;SDS011;71592;52.178;4.512;2023-08-06T06:38:16;3.63;;;1.80;;
82030;SDS011;71592;52.178;4.512;2023-08-06T06:40:41;3.13;;;1.80;;
82030;SDS011;71592;52.178;4.512;2023-08-06T06:43:07;3.60;;;1.90;;
82030;SDS011;71592;52.178;4.512;2023-08-06T06:45:32;3.50;;;1.58;;
82030;SDS011;71592;52.178;4.512;2023-08-06T06:47:57;3.33;;;1.60;;
82030;SDS011;71592;52.178;4.512;2023-08-06T06:50:23;3.45;;;1.50;;
82030;SDS011;71592;52.178;4.512;2023-08-06T06:52:52;2.85;;;1.30;;
82030;SDS011;71592;52.178;4.512;2023-08-06T06:55:17;3.95;;;1.98;;
82030;SDS011;71592;52.178;4.512;2023-08-06T06:57:43;4.13;;;1.70;;
82030;SDS011;71592;52.178;4.512;2023-08-06T07:00:08;2.72;;;1.60;;
82030;SDS011;71592;52.178;4.512;2023-08-06T07:02:34;3.35;;;1.48;;
82030;SDS011;71592;52.178;4.512;2023-08-06T07:04:59;5.65;;;2.20;;
82030;SDS011;71592;52.178;4.512;2023-08-06T07:07:25;4.03;;;1.95;;
82030;SDS011;71592;52.178;4.512;2023-08-06T07:09:50;3.08;;;1.70;;
82030;SDS011;71592;52.178;4.512;2023-08-06T07:12:16;3.38;;;1.45;;
82030;SDS011;71592;52.178;4.512;2023-08-06T07:14:41;4.18;;;1.73;;
82030;SDS011;71592;52.178;4.512;2023-08-06T07:17:06;3.38;;;1.58;;
82030;SDS011;71592;52.178;4.512;2023-08-06T07:19:32;3.42;;;1.42;;
82030;SDS011;71592;52.178;4.512;2023-08-06T07:21:58;6.53;;;1.70;;
82030;SDS011;71592;52.178;4.512;2023-08-06T07:24:23;4.63;;;1.80;;
82030;SDS011;71592;52.178;4.512;2023-08-06T07:26:48;2.97;;;1.30;;
82030;SDS011;71592;52.178;4.512;2023-08-06T07:29:14;2.92;;;1.50;;
82030;SDS011;71592;52.178;4.512;2023-08-06T07:31:44;3.15;;;1.50;;
82030;SDS011;71592;52.178;4.512;2023-08-06T07:34:10;4.68;;;1.70;;
82030;SDS011;71592;52.178;4.512;2023-08-06T07:36:35;3.42;;;1.73;;
82030;SDS011;71592;52.178;4.512;2023-08-06T07:39:01;4.95;;;2.60;;
82030;SDS011;71592;52.178;4.512;2023-08-06T07:41:26;2.75;;;1.48;;
82030;SDS011;71592;52.178;4.512;2023-08-06T07:43:52;5.82;;;1.60;;
82030;SDS011;71592;52.178;4.512;2023-08-06T07:46:17;3.00;;;1.48;;
82030;SDS011;71592;52.178;4.512;2023-08-06T07:48:43;2.20;;;1.30;;
82030;SDS011;71592;52.178;4.512;2023-08-06T07:51:09;6.28;;;1.90;;
82030;SDS011;71592;52.178;4.512;2023-08-06T07:53:34;2.90;;;1.60;;
82030;SDS011;71592;52.178;4.512;2023-08-06T07:55:59;5.80;;;2.03;;
82030;SDS011;71592;52.178;4.512;2023-08-06T07:58:27;3.25;;;1.63;;
82030;SDS011;71592;52.178;4.512;2023-08-06T08:00:54;3.25;;;1.60;;
82030;SDS011;71592;52.178;4.512;2023-08-06T08:03:20;3.53;;;1.58;;
82030;SDS011;71592;52.178;4.512;2023-08-06T08:05:45;2.90;;;1.60;;
82030;SDS011;71592;52.178;4.512;2023-08-06T08:08:11;3.60;;;1.75;;
82030;SDS011;71592;52.178;4.512;2023-08-06T08:10:36;4.15;;;1.65;;
82030;SDS011;71592;52.178;4.512;2023-08-06T08:13:03;4.05;;;1.70;;
82030;SDS011;71592;52.178;4.512;2023-08-06T08:15:29;2.15;;;1.40;;
82030;SDS011;71592;52.178;4.512;2023-08-06T08:17:57;2.80;;;1.40;;
82030;SDS011;71592;52.178;4.512;2023-08-06T08:20:22;3.20;;;1.45;;
82030;SDS011;71592;52.178;4.512;2023-08-06T08:22:48;3.17;;;1.38;;
82030;SDS011;71592;52.178;4.512;2023-08-06T08:25:13;2.40;;;1.48;;
82030;SDS011;71592;52.178;4.512;2023-08-06T08:27:39;2.65;;;1.50;;
82030;SDS011;71592;52.178;4.512;2023-08-06T08:30:05;3.15;;;1.83;;
82030;SDS011;71592;52.178;4.512;2023-08-06T08:32:31;2.78;;;1.80;;
82030;SDS011;71592;52.178;4.512;2023-08-06T08:34:56;2.97;;;1.35;;
82030;SDS011;71592;52.178;4.512;2023-08-06T08:37:22;2.95;;;1.40;;
82030;SDS011;71592;52.178;4.512;2023-08-06T08:39:48;3.92;;;1.90;;
82030;SDS011;71592;52.178;4.512;2023-08-06T08:42:13;3.30;;;1.60;;
82030;SDS011;71592;52.178;4.512;2023-08-06T08:44:40;3.05;;;1.35;;
82030;SDS011;71592;52.178;4.512;2023-08-06T08:47:07;4.70;;;1.80;;
82030;SDS011;71592;52.178;4.512;2023-08-06T08:49:36;4.65;;;1.77;;
82030;SDS011;71592;52.178;4.512;2023-08-06T08:52:02;3.38;;;2.00;;
82030;SDS011;71592;52.178;4.512;2023-08-06T08:54:31;3.50;;;1.70;;
82030;SDS011;71592;52.178;4.512;2023-08-06T08:56:59;4.63;;;1.58;;
82030;SDS011;71592;52.178;4.512;2023-08-06T08:59:25;2.90;;;1.63;;
82030;SDS011;71592;52.178;4.512;2023-08-06T09:01:51;2.70;;;1.50;;
82030;SDS011;71592;52.178;4.512;2023-08-06T09:04:18;3.00;;;1.67;;
82030;SDS011;71592;52.178;4.512;2023-08-06T09:06:50;4.55;;;1.85;;
82030;SDS011;71592;52.178;4.512;2023-08-06T09:09:35;2.80;;;1.70;;
82030;SDS011;71592;52.178;4.512;2023-08-06T09:12:06;3.60;;;1.60;;
82030;SDS011;71592;52.178;4.512;2023-08-06T09:14:38;3.72;;;1.65;;
82030;SDS011;71592;52.178;4.512;2023-08-06T09:17:04;3.90;;;1.70;;
82030;SDS011;71592;52.178;4.512;2023-08-06T09:19:31;2.53;;;1.52;;
82030;SDS011;71592;52.178;4.512;2023-08-06T09:21:57;3.50;;;1.73;;
82030;SDS011;71592;52.178;4.512;2023-08-06T09:24:22;3.33;;;1.77;;
82030;SDS011;71592;52.178;4.512;2023-08-06T09:26:48;4.20;;;1.60;;
82030;SDS011;71592;52.178;4.512;2023-08-06T09:29:13;3.05;;;1.67;;
82030;SDS011;71592;52.178;4.512;2023-08-06T09:31:49;4.38;;;1.80;;
82030;SDS011;71592;52.178;4.512;2023-08-06T09:34:21;2.45;;;1.30;;
82030;SDS011;71592;52.178;4.512;2023-08-06T09:36:51;5.32;;;1.70;;
82030;SDS011;71592;52.178;4.512;2023-08-06T09:39:21;3.00;;;1.60;;
82030;SDS011;71592;52.178;4.512;2023-08-06T09:44:21;3.08;;;1.60;;
82030;SDS011;71592;52.178;4.512;2023-08-06T09:46:51;3.10;;;1.50;;
82030;SDS011;71592;52.178;4.512;2023-08-06T09:49:19;3.42;;;1.58;;
82030;SDS011;71592;52.178;4.512;2023-08-06T09:51:49;3.38;;;1.63;;
82030;SDS011;71592;52.178;4.512;2023-08-06T09:56:45;2.55;;;1.30;;
82030;SDS011;71592;52.178;4.512;2023-08-06T09:59:13;3.55;;;1.60;;
82030;SDS011;71592;52.178;4.512;2023-08-06T10:01:38;2.33;;;1.42;;
82030;SDS011;71592;52.178;4.512;2023-08-06T10:04:05;3.63;;;1.70;;
82030;SDS011;71592;52.178;4.512;2023-08-06T10:06:36;3.42;;;1.63;;
82030;SDS011;71592;52.178;4.512;2023-08-06T10:09:02;3.92;;;1.50;;
82030;SDS011;71592;52.178;4.512;2023-08-06T10:11:31;3.55;;;1.55;;
82030;SDS011;71592;52.178;4.512;2023-08-06T10:13:58;2.85;;;1.45;;
82030;SDS011;71592;52.178;4.512;2023-08-06T10:16:31;3.25;;;1.60;;
82030;SDS011;71592;52.178;4.512;2023-08-06T10:18:58;3.55;;;1.50;;
82030;SDS011;71592;52.178;4.512;2023-08-06T10:21:24;4.18;;;1.60;;
82030;SDS011;71592;52.178;4.512;2023-08-06T10:23:56;3.40;;;1.60;;
82030;SDS011;71592;52.178;4.512;2023-08-06T10:26:25;3.85;;;1.52;;
82030;SDS011;71592;52.178;4.512;2023-08-06T10:28:52;2.78;;;1.40;;
82030;SDS011;71592;52.178;4.512;2023-08-06T10:31:18;3.47;;;1.67;;
82030;SDS011;71592;52.178;4.512;2023-08-06T10:33:44;3.50;;;1.33;;
82030;SDS011;71592;52.178;4.512;2023-08-06T10:36:11;2.95;;;1.40;;
82030;SDS011;71592;52.178;4.512;2023-08-06T10:38:47;2.90;;;1.73;;
82030;SDS011;71592;52.178;4.512;2023-08-06T10:41:17;3.25;;;1.42;;
82030;SDS011;71592;52.178;4.512;2023-08-06T10:43:48;3.47;;;1.80;;
82030;SDS011;71592;52.178;4.512;2023-08-06T10:46:26;4.43;;;1.80;;
82030;SDS011;71592;52.178;4.512;2023-08-06T10:48:52;3.35;;;1.75;;
82030;SDS011;71592;52.178;4.512;2023-08-06T10:51:17;3.95;;;1.40;;
82030;SDS011;71592;52.178;4.512;2023-08-06T10:53:44;5.50;;;2.35;;
82030;SDS011;71592;52.178;4.512;2023-08-06T10:56:18;2.90;;;1.60;;
82030;SDS011;71592;52.178;4.512;2023-08-06T10:58:47;3.33;;;1.58;;
82030;SDS011;71592;52.178;4.512;2023-08-06T11:01:14;2.35;;;1.38;;
82030;SDS011;71592;52.178;4.512;2023-08-06T11:03:40;2.70;;;1.42;;
82030;SDS011;71592;52.178;4.512;2023-08-06T11:06:07;3.85;;;1.55;;
82030;SDS011;71592;52.178;4.512;2023-08-06T11:08:34;3.53;;;1.70;;
82030;SDS011;71592;52.178;4.512;2023-08-06T11:11:10;2.55;;;1.27;;
82030;SDS011;71592;52.178;4.512;2023-08-06T11:13:38;2.63;;;1.45;;
82030;SDS011;71592;52.178;4.512;2023-08-06T11:16:07;2.55;;;1.50;;
82030;SDS011;71592;52.178;4.512;2023-08-06T11:18:33;3.65;;;1.70;;
82030;SDS011;71592;52.178;4.512;2023-08-06T11:20:59;3.35;;;1.83;;
82030;SDS011;71592;52.178;4.512;2023-08-06T11:23:29;3.75;;;1.65;;
82030;SDS011;71592;52.178;4.512;2023-08-06T11:25:55;3.05;;;1.50;;
82030;SDS011;71592;52.178;4.512;2023-08-06T11:28:21;2.35;;;1.15;;
82030;SDS011;71592;52.178;4.512;2023-08-06T11:30:47;2.00;;;1.08;;
82030;SDS011;71592;52.178;4.512;2023-08-06T11:33:13;2.05;;;1.30;;
82030;SDS011;71592;52.178;4.512;2023-08-06T11:35:39;1.88;;;1.17;;
82030;SDS011;71592;52.178;4.512;2023-08-06T11:38:06;3.38;;;1.15;;
82030;SDS011;71592;52.178;4.512;2023-08-06T11:40:32;1.98;;;1.13;;
82030;SDS011;71592;52.178;4.512;2023-08-06T11:42:58;3.45;;;1.30;;
82030;SDS011;71592;52.178;4.512;2023-08-06T11:45:24;3.53;;;1.25;;
82030;SDS011;71592;52.178;4.512;2023-08-06T11:47:50;3.40;;;1.30;;
82030;SDS011;71592;52.178;4.512;2023-08-06T11:50:23;3.50;;;1.42;;
82030;SDS011;71592;52.178;4.512;2023-08-06T11:52:54;2.10;;;1.20;;
82030;SDS011;71592;52.178;4.512;2023-08-06T11:55:23;3.40;;;1.30;;
82030;SDS011;71592;52.178;4.512;2023-08-06T11:57:49;2.70;;;1.30;;
82030;SDS011;71592;52.178;4.512;2023-08-06T12:00:14;2.58;;;1.30;;
82030;SDS011;71592;52.178;4.512;2023-08-06T12:02:43;2.28;;;1.30;;
82030;SDS011;71592;52.178;4.512;2023-08-06T12:05:13;4.65;;;1.20;;
82030;SDS011;71592;52.178;4.512;2023-08-06T12:07:49;3.05;;;1.10;;
82030;SDS011;71592;52.178;4.512;2023-08-06T12:10:19;1.55;;;1.10;;
82030;SDS011;71592;52.178;4.512;2023-08-06T12:12:45;1.70;;;1.00;;
82030;SDS011;71592;52.178;4.512;2023-08-06T12:15:11;4.97;;;1.38;;
82030;SDS011;71592;52.178;4.512;2023-08-06T12:17:37;3.85;;;1.25;;
82030;SDS011;71592;52.178;4.512;2023-08-06T12:20:03;2.30;;;1.20;;
82030;SDS011;71592;52.178;4.512;2023-08-06T12:22:31;2.30;;;1.10;;
82030;SDS011;71592;52.178;4.512;2023-08-06T12:25:01;2.28;;;1.25;;
82030;SDS011;71592;52.178;4.512;2023-08-06T12:27:37;3.13;;;1.38;;
82030;SDS011;71592;52.178;4.512;2023-08-06T12:30:04;2.63;;;1.33;;
82030;SDS011;71592;52.178;4.512;2023-08-06T12:32:31;2.22;;;1.27;;
82030;SDS011;71592;52.178;4.512;2023-08-06T12:34:57;1.77;;;0.93;;
82030;SDS011;71592;52.178;4.512;2023-08-06T12:37:23;2.80;;;1.20;;
82030;SDS011;71592;52.178;4.512;2023-08-06T12:39:50;1.27;;;1.00;;
82030;SDS011;71592;52.178;4.512;2023-08-06T12:42:16;3.08;;;1.20;;
82030;SDS011;71592;52.178;4.512;2023-08-06T12:44:41;2.63;;;1.13;;
82030;SDS011;71592;52.178;4.512;2023-08-06T12:47:07;3.92;;;1.30;;
82030;SDS011;71592;52.178;4.512;2023-08-06T12:49:33;2.28;;;1.20;;
82030;SDS011;71592;52.178;4.512;2023-08-06T12:51:58;2.08;;;1.33;;
82030;SDS011;71592;52.178;4.512;2023-08-06T12:54:30;3.88;;;1.42;;
82030;SDS011;71592;52.178;4.512;2023-08-06T12:57:00;3.88;;;1.30;;
82030;SDS011;71592;52.178;4.512;2023-08-06T12:59:26;2.03;;;1.27;;
82030;SDS011;71592;52.178;4.512;2023-08-06T13:01:51;2.40;;;1.20;;
82030;SDS011;71592;52.178;4.512;2023-08-06T13:04:16;3.10;;;1.48;;
82030;SDS011;71592;52.178;4.512;2023-08-06T13:06:42;2.15;;;1.05;;
82030;SDS011;71592;52.178;4.512;2023-08-06T13:09:11;2.60;;;1.40;;
82030;SDS011;71592;52.178;4.512;2023-08-06T13:11:38;2.88;;;1.60;;
82030;SDS011;71592;52.178;4.512;2023-08-06T13:14:05;3.33;;;1.50;;
82030;SDS011;71592;52.178;4.512;2023-08-06T13:16:35;3.05;;;2.03;;
82030;SDS011;71592;52.178;4.512;2023-08-06T13:19:03;3.47;;;1.63;;
82030;SDS011;71592;52.178;4.512;2023-08-06T13:24:11;3.05;;;1.23;;
82030;SDS011;71592;52.178;4.512;2023-08-06T13:26:36;2.85;;;1.63;;
82030;SDS011;71592;52.178;4.512;2023-08-06T13:29:02;5.40;;;1.90;;
82030;SDS011;71592;52.178;4.512;2023-08-06T13:31:28;6.18;;;1.75;;
82030;SDS011;71592;52.178;4.512;2023-08-06T13:33:54;4.88;;;1.67;;
82030;SDS011;71592;52.178;4.512;2023-08-06T13:36:21;4.70;;;1.55;;
82030;SDS011;71592;52.178;4.512;2023-08-06T13:38:47;4.10;;;1.63;;
82030;SDS011;71592;52.178;4.512;2023-08-06T13:41:13;8.13;;;1.75;;
82030;SDS011;71592;52.178;4.512;2023-08-06T13:43:38;4.38;;;2.00;;
82030;SDS011;71592;52.178;4.512;2023-08-06T13:46:04;7.53;;;1.70;;
82030;SDS011;71592;52.178;4.512;2023-08-06T13:48:30;7.03;;;2.00;;
82030;SDS011;71592;52.178;4.512;2023-08-06T13:50:56;6.15;;;1.95;;
82030;SDS011;71592;52.178;4.512;2023-08-06T13:53:21;6.10;;;2.03;;
82030;SDS011;71592;52.178;4.512;2023-08-06T13:55:46;5.57;;;1.40;;
82030;SDS011;71592;52.178;4.512;2023-08-06T13:58:12;6.50;;;1.48;;
82030;SDS011;71592;52.178;4.512;2023-08-06T14:00:38;3.72;;;1.67;;
82030;SDS011;71592;52.178;4.512;2023-08-06T14:03:04;5.13;;;1.23;;
82030;SDS011;71592;52.178;4.512;2023-08-06T14:05:29;8.20;;;1.88;;
82030;SDS011;71592;52.178;4.512;2023-08-06T14:07:55;4.78;;;1.70;;
82030;SDS011;71592;52.178;4.512;2023-08-06T14:10:20;4.50;;;1.63;;
82030;SDS011;71592;52.178;4.512;2023-08-06T14:12:45;3.13;;;1.35;;
82030;SDS011;71592;52.178;4.512;2023-08-06T14:15:11;3.55;;;1.40;;
82030;SDS011;71592;52.178;4.512;2023-08-06T14:17:36;4.50;;;1.45;;
82030;SDS011;71592;52.178;4.512;2023-08-06T14:20:03;7.88;;;1.80;;
82030;SDS011;71592;52.178;4.512;2023-08-06T14:22:30;5.82;;;1.67;;
82030;SDS011;71592;52.178;4.512;2023-08-06T14:24:56;5.68;;;1.65;;
82030;SDS011;71592;52.178;4.512;2023-08-06T14:27:22;7.53;;;2.42;;
82030;SDS011;71592;52.178;4.512;2023-08-06T14:29:48;6.32;;;1.90;;
82030;SDS011;71592;52.178;4.512;2023-08-06T14:32:13;6.60;;;1.48;;
82030;SDS011;71592;52.178;4.512;2023-08-06T14:34:42;10.32;;;2.67;;
82030;SDS011;71592;52.178;4.512;2023-08-06T14:37:08;5.15;;;1.80;;
82030;SDS011;71592;52.178;4.512;2023-08-06T14:39:33;4.80;;;1.80;;
82030;SDS011;71592;52.178;4.512;2023-08-06T14:41:59;6.13;;;1.70;;
82030;SDS011;71592;52.178;4.512;2023-08-06T14:44:24;6.32;;;1.48;;
82030;SDS011;71592;52.178;4.512;2023-08-06T14:46:49;6.25;;;1.75;;
82030;SDS011;71592;52.178;4.512;2023-08-06T14:49:15;6.00;;;1.52;;
82030;SDS011;71592;52.178;4.512;2023-08-06T14:51:40;5.82;;;1.58;;
82030;SDS011;71592;52.178;4.512;2023-08-06T14:54:05;4.95;;;1.40;;